createdAt,value
2022-07-29T00:00:57.221Z,17.88
2022-07-29T00:03:23.780Z,17.78
2022-07-29T00:05:50.351Z,17.70
2022-07-29T00:08:16.850Z,17.91
2022-07-29T00:10:43.917Z,18.06
2022-07-29T00:13:10.387Z,17.93
2022-07-29T00:15:36.849Z,17.78
2022-07-29T00:18:03.360Z,18.02
2022-07-29T00:20:29.922Z,17.81
2022-07-29T00:22:56.386Z,17.92
2022-07-29T00:25:22.883Z,17.99
2022-07-29T00:27:49.548Z,17.93
2022-07-29T00:30:16.894Z,17.96
2022-07-29T00:32:43.421Z,18.04
2022-07-29T00:35:28.659Z,17.87
2022-07-29T00:37:55.132Z,17.96
2022-07-29T00:40:23.614Z,17.99
2022-07-29T00:42:52.439Z,17.98
2022-07-29T00:45:19.196Z,17.90
2022-07-29T00:47:46.527Z,17.84
2022-07-29T00:50:13.924Z,18.11
2022-07-29T00:52:42.694Z,17.98
2022-07-29T00:55:11.755Z,17.97
2022-07-29T00:57:39.096Z,17.90
2022-07-29T01:00:06.985Z,17.88
2022-07-29T01:02:33.506Z,17.98
2022-07-29T01:05:00.413Z,17.97
2022-07-29T01:07:27.181Z,17.96
2022-07-29T01:09:54.585Z,17.79
2022-07-29T01:12:25.020Z,17.82
2022-07-29T01:14:51.877Z,17.77
2022-07-29T01:17:20.666Z,17.63
2022-07-29T01:20:05.542Z,17.68
2022-07-29T01:22:34.990Z,17.55
2022-07-29T01:25:07.638Z,17.84
2022-07-29T01:27:48.677Z,17.57
2022-07-29T01:30:15.684Z,17.60
2022-07-29T01:32:43.898Z,17.62
2022-07-29T01:35:23.547Z,17.58
2022-07-29T01:37:55.963Z,17.65
2022-07-29T01:40:37.339Z,17.59
2022-07-29T01:43:35.336Z,17.43
2022-07-29T01:46:06.448Z,17.53
2022-07-29T01:48:40.377Z,17.70
2022-07-29T01:51:09.688Z,17.53
2022-07-29T01:53:45.102Z,17.83
2022-07-29T01:56:12.229Z,17.64
2022-07-29T01:58:41.235Z,17.82
2022-07-29T02:01:09.785Z,17.86
2022-07-29T02:03:37.468Z,17.66
2022-07-29T02:06:04.588Z,17.60
2022-07-29T02:08:32.878Z,17.64
2022-07-29T02:11:01.477Z,17.61
2022-07-29T02:13:29.033Z,17.68
2022-07-29T02:15:57.164Z,17.61
2022-07-29T02:18:25.060Z,17.73
2022-07-29T02:20:54.142Z,17.75
2022-07-29T02:23:22.519Z,17.95
2022-07-29T02:25:58.744Z,17.93
2022-07-29T02:28:27.853Z,17.87
2022-07-29T02:31:00.664Z,17.98
2022-07-29T02:33:28.021Z,17.85
2022-07-29T02:35:56.244Z,17.86
2022-07-29T02:38:41.774Z,17.71
2022-07-29T02:41:13.254Z,17.99
2022-07-29T02:43:40.758Z,18.04
2022-07-29T02:46:28.896Z,18.03
2022-07-29T02:49:05.464Z,17.95
2022-07-29T02:51:59.938Z,18.05
2022-07-29T02:54:38.866Z,18.03
2022-07-29T02:57:12.367Z,18.05
2022-07-29T02:59:41.898Z,18.15
2022-07-29T03:02:09.476Z,18.05
2022-07-29T03:04:36.963Z,17.95
2022-07-29T03:07:04.752Z,18.11
2022-07-29T03:09:31.831Z,18.20
2022-07-29T03:11:58.502Z,18.08
2022-07-29T03:14:25.210Z,18.13
2022-07-29T03:16:52.250Z,18.01
2022-07-29T03:19:19.912Z,18.07
2022-07-29T03:21:46.438Z,18.12
2022-07-29T03:24:25.915Z,18.13
2022-07-29T03:26:52.450Z,17.88
2022-07-29T03:29:18.931Z,17.77
2022-07-29T03:31:46.432Z,18.00
2022-07-29T03:34:15.297Z,17.86
2022-07-29T03:36:41.934Z,17.68
2022-07-29T03:39:10.221Z,17.68
2022-07-29T03:41:38.072Z,17.66
2022-07-29T03:44:05.463Z,17.69
2022-07-29T03:46:33.277Z,17.82
2022-07-29T03:49:02.374Z,17.52
2022-07-29T03:51:33.420Z,17.79
2022-07-29T03:54:04.990Z,17.85
2022-07-29T03:56:39.578Z,17.88
2022-07-29T03:59:06.745Z,17.71
2022-07-29T04:01:34.923Z,17.85
2022-07-29T04:04:02.788Z,17.90
2022-07-29T04:06:29.302Z,17.79
2022-07-29T04:08:55.785Z,17.58
2022-07-29T04:11:22.298Z,17.56
2022-07-29T04:13:48.739Z,17.77
2022-07-29T04:16:15.286Z,17.85
2022-07-29T04:18:41.846Z,17.75
2022-07-29T04:21:08.449Z,17.56
2022-07-29T04:23:34.938Z,17.84
2022-07-29T04:26:02.127Z,17.73
2022-07-29T04:28:28.602Z,17.73
2022-07-29T04:30:55.135Z,17.98
2022-07-29T04:33:21.612Z,17.88
2022-07-29T04:35:55.047Z,18.09
2022-07-29T04:38:22.891Z,17.79
2022-07-29T04:40:49.695Z,18.09
2022-07-29T04:43:16.660Z,18.24
2022-07-29T04:45:49.145Z,18.04
2022-07-29T04:48:15.617Z,18.24
2022-07-29T04:50:42.092Z,18.37
2022-07-29T04:53:08.736Z,18.46
2022-07-29T04:55:35.228Z,18.23
2022-07-29T04:58:05.439Z,18.05
2022-07-29T05:00:33.069Z,18.06
2022-07-29T05:03:00.316Z,18.30
2022-07-29T05:05:26.917Z,18.45
2022-07-29T05:07:53.371Z,18.45
2022-07-29T05:10:19.827Z,18.58
2022-07-29T05:12:46.320Z,18.58
2022-07-29T05:15:15.993Z,18.68
2022-07-29T05:17:42.441Z,18.73
2022-07-29T05:20:09.400Z,18.66
2022-07-29T05:22:35.855Z,18.75
2022-07-29T05:25:06.985Z,18.88
2022-07-29T05:27:36.359Z,18.96
2022-07-29T05:30:03.097Z,19.06
2022-07-29T05:32:29.846Z,18.95
2022-07-29T05:34:56.443Z,19.06
2022-07-29T05:37:22.874Z,19.43
2022-07-29T05:39:56.268Z,19.54
2022-07-29T05:42:24.878Z,19.46
2022-07-29T05:44:51.820Z,19.68
2022-07-29T05:47:18.459Z,19.94
2022-07-29T05:49:44.906Z,19.78
2022-07-29T05:52:11.432Z,19.69
2022-07-29T05:54:37.898Z,19.75
2022-07-29T05:57:04.741Z,19.64
2022-07-29T05:59:31.218Z,19.66
2022-07-29T06:01:58.544Z,19.56
2022-07-29T06:04:25.336Z,19.63
2022-07-29T06:06:51.884Z,19.63
2022-07-29T06:09:18.543Z,19.98
2022-07-29T06:11:44.996Z,19.84
2022-07-29T06:14:11.458Z,20.07
2022-07-29T06:16:38.066Z,19.99
2022-07-29T06:19:05.317Z,19.56
2022-07-29T06:21:31.777Z,19.79
2022-07-29T06:23:58.246Z,19.74
2022-07-29T06:26:30.605Z,19.66
2022-07-29T06:28:57.402Z,19.87
2022-07-29T06:31:24.008Z,19.84
2022-07-29T06:33:50.491Z,20.10
2022-07-29T06:36:16.967Z,20.03
2022-07-29T06:38:49.476Z,20.25
2022-07-29T06:41:18.180Z,20.44
2022-07-29T06:43:51.973Z,20.51
2022-07-29T06:46:21.825Z,20.71
2022-07-29T06:48:48.796Z,20.84
2022-07-29T06:51:15.480Z,21.04
2022-07-29T06:53:59.869Z,21.06
2022-07-29T06:56:29.000Z,21.49
2022-07-29T06:58:55.426Z,21.53
2022-07-29T07:01:22.063Z,21.54
2022-07-29T07:03:49.180Z,21.55
2022-07-29T07:06:15.791Z,21.59
2022-07-29T07:08:42.279Z,21.70
2022-07-29T07:11:09.564Z,22.11
2022-07-29T07:13:36.876Z,22.62
2022-07-29T07:16:03.840Z,22.72
2022-07-29T07:18:30.467Z,22.43
2022-07-29T07:20:57.465Z,22.42
2022-07-29T07:23:23.947Z,23.04
2022-07-29T07:25:50.395Z,23.37
2022-07-29T07:28:16.876Z,23.53
2022-07-29T07:30:43.386Z,23.01
2022-07-29T07:33:10.193Z,22.48
2022-07-29T07:35:36.701Z,22.90
2022-07-29T07:38:03.393Z,23.12
2022-07-29T07:40:29.932Z,23.53
2022-07-29T07:42:56.444Z,23.74
2022-07-29T07:45:23.011Z,23.59
2022-07-29T07:47:49.472Z,23.92
2022-07-29T07:50:18.865Z,24.21
2022-07-29T07:52:55.462Z,24.24
2022-07-29T07:55:22.176Z,24.57
2022-07-29T07:57:48.630Z,24.96
2022-07-29T08:00:16.154Z,25.28
2022-07-29T08:02:43.866Z,25.59
2022-07-29T08:05:12.560Z,25.43
2022-07-29T08:07:39.410Z,25.19
2022-07-29T08:10:06.460Z,25.30
2022-07-29T08:12:32.968Z,25.29
2022-07-29T08:14:59.523Z,25.46
2022-07-29T08:17:26.257Z,25.17
2022-07-29T08:19:52.710Z,24.91
2022-07-29T08:22:19.476Z,25.29
2022-07-29T08:24:53.332Z,25.43
2022-07-29T08:27:42.421Z,25.79
2022-07-29T08:30:08.557Z,25.72
2022-07-29T08:32:53.049Z,25.27
2022-07-29T08:35:20.942Z,24.91
2022-07-29T08:37:47.481Z,24.96
2022-07-29T08:40:15.137Z,24.94
2022-07-29T08:42:41.795Z,24.70
2022-07-29T08:45:08.926Z,25.02
2022-07-29T08:47:40.414Z,25.17
2022-07-29T08:50:08.516Z,25.28
2022-07-29T08:52:37.273Z,25.06
2022-07-29T08:55:08.577Z,25.21
2022-07-29T08:57:37.250Z,25.26
2022-07-29T09:00:11.877Z,25.21
2022-07-29T09:02:44.658Z,25.43
2022-07-29T09:05:13.387Z,25.21
2022-07-29T09:07:40.604Z,25.54
2022-07-29T09:10:07.702Z,25.93
2022-07-29T09:12:37.976Z,26.60
2022-07-29T09:15:05.214Z,26.68
2022-07-29T09:17:46.445Z,26.38
2022-07-29T09:20:15.451Z,26.07
2022-07-29T09:22:42.397Z,26.61
2022-07-29T09:25:09.786Z,26.26
2022-07-29T09:27:36.926Z,25.97
2022-07-29T09:30:11.523Z,26.20
2022-07-29T09:32:58.231Z,26.52
2022-07-29T09:35:26.317Z,27.09
2022-07-29T09:37:53.005Z,27.00
2022-07-29T09:40:22.494Z,27.08
2022-07-29T09:42:49.399Z,26.56
2022-07-29T09:45:30.582Z,26.50
2022-07-29T09:47:59.909Z,26.63
2022-07-29T09:50:56.081Z,26.57
2022-07-29T09:53:33.704Z,26.49
2022-07-29T09:56:00.270Z,26.67
2022-07-29T09:58:26.745Z,27.17
2022-07-29T10:00:54.455Z,27.55
2022-07-29T10:03:21.590Z,27.35
2022-07-29T10:06:06.308Z,27.62
2022-07-29T10:08:32.784Z,27.96
2022-07-29T10:11:13.940Z,27.78
2022-07-29T10:13:42.100Z,27.90
2022-07-29T10:16:09.315Z,27.59
2022-07-29T10:18:36.615Z,27.90
2022-07-29T10:21:03.123Z,28.10
2022-07-29T10:23:30.422Z,28.13
2022-07-29T10:26:13.928Z,28.48
2022-07-29T10:28:40.395Z,28.64
2022-07-29T10:31:09.669Z,28.09
2022-07-29T10:33:54.350Z,27.91
2022-07-29T10:36:52.842Z,27.73
2022-07-29T10:39:44.425Z,27.92
2022-07-29T10:42:29.820Z,28.27
2022-07-29T10:45:02.319Z,28.51
2022-07-29T10:47:28.873Z,28.64
2022-07-29T10:50:06.082Z,28.30
2022-07-29T10:52:50.920Z,29.19
2022-07-29T10:55:39.248Z,29.47
2022-07-29T10:58:24.688Z,29.78
2022-07-29T11:00:52.854Z,29.33
2022-07-29T11:03:50.899Z,29.39
2022-07-29T11:06:27.023Z,29.55
2022-07-29T11:09:20.495Z,28.78
2022-07-29T11:12:01.831Z,29.53
2022-07-29T11:14:57.442Z,30.14
2022-07-29T11:17:24.544Z,30.38
2022-07-29T11:19:52.207Z,30.56
2022-07-29T11:22:35.449Z,30.23
2022-07-29T11:25:16.801Z,29.99
2022-07-29T11:27:43.984Z,29.51
2022-07-29T11:30:13.120Z,29.78
2022-07-29T11:32:48.447Z,30.07
2022-07-29T11:35:38.356Z,29.90
2022-07-29T11:38:28.338Z,29.60
2022-07-29T11:41:25.361Z,30.23
2022-07-29T11:43:59.908Z,30.46
2022-07-29T11:46:50.675Z,30.86
2022-07-29T11:49:32.408Z,31.16
2022-07-29T11:52:02.386Z,31.63
2022-07-29T11:57:21.868Z,31.73
2022-07-29T11:59:48.519Z,31.43
2022-07-29T12:05:10.702Z,30.68
2022-07-29T12:07:02.300Z,31.74
2022-07-29T12:07:38.955Z,30.77
2022-07-29T12:10:06.411Z,31.24
2022-07-29T12:12:33.489Z,31.64
2022-07-29T12:15:16.069Z,31.24
2022-07-29T12:17:42.966Z,31.19
2022-07-29T12:20:09.621Z,31.05
2022-07-29T12:22:41.942Z,31.09
2022-07-29T12:25:34.897Z,30.86
2022-07-29T12:28:00.882Z,30.83
2022-07-29T12:30:36.791Z,30.74
2022-07-29T12:33:14.435Z,30.90
2022-07-29T12:35:42.729Z,30.81
2022-07-29T12:38:13.309Z,30.90
2022-07-29T12:40:40.318Z,30.00
2022-07-29T12:43:14.270Z,29.78
2022-07-29T12:45:45.629Z,30.39
2022-07-29T12:48:12.723Z,29.85
2022-07-29T12:50:56.629Z,29.55
2022-07-29T12:53:23.302Z,30.05
2022-07-29T12:55:52.579Z,30.32
2022-07-29T12:58:36.325Z,30.76
2022-07-29T13:01:17.078Z,30.90
2022-07-29T13:04:05.159Z,30.47
2022-07-29T13:06:41.704Z,30.41
2022-07-29T13:09:16.122Z,30.00
2022-07-29T13:11:48.349Z,29.82
2022-07-29T13:14:34.661Z,30.12
2022-07-29T13:17:09.003Z,30.05
2022-07-29T13:19:52.346Z,29.65
2022-07-29T13:22:23.576Z,29.89
2022-07-29T13:24:51.300Z,30.04
2022-07-29T13:27:18.963Z,30.29
2022-07-29T13:29:45.598Z,30.55
2022-07-29T13:32:13.138Z,30.56
2022-07-29T13:34:39.986Z,30.33
2022-07-29T13:37:06.526Z,30.55
2022-07-29T13:39:32.965Z,30.56
2022-07-29T13:41:59.892Z,30.28
2022-07-29T13:44:26.941Z,30.21
2022-07-29T13:46:53.480Z,29.73
2022-07-29T13:49:19.993Z,29.69
2022-07-29T13:51:46.619Z,29.98
2022-07-29T13:54:13.055Z,29.79
2022-07-29T13:56:39.681Z,29.85
2022-07-29T13:59:06.182Z,29.61
2022-07-29T14:01:32.801Z,29.25
2022-07-29T14:03:59.385Z,29.19
2022-07-29T14:06:25.891Z,29.35
2022-07-29T14:08:52.380Z,29.62
2022-07-29T14:11:18.817Z,29.93
2022-07-29T14:13:45.445Z,29.82
2022-07-29T14:16:12.047Z,30.15
2022-07-29T14:18:38.541Z,30.41
2022-07-29T14:21:04.960Z,29.69
2022-07-29T14:23:31.412Z,29.61
2022-07-29T14:25:58.257Z,29.32
2022-07-29T14:28:24.703Z,29.22
2022-07-29T14:30:51.143Z,29.33
2022-07-29T14:33:17.814Z,29.39
2022-07-29T14:35:45.472Z,29.60
2022-07-29T14:38:12.017Z,29.78
2022-07-29T14:40:38.927Z,29.97
2022-07-29T14:43:05.451Z,29.82
2022-07-29T14:45:32.440Z,29.55
2022-07-29T14:47:59.003Z,28.94
2022-07-29T14:50:31.752Z,29.21
2022-07-29T14:52:59.146Z,29.24
2022-07-29T14:55:25.666Z,28.74
2022-07-29T14:57:55.443Z,28.99
2022-07-29T15:00:25.115Z,28.59
2022-07-29T15:03:01.833Z,28.54
2022-07-29T15:05:28.773Z,28.59
2022-07-29T15:07:55.271Z,28.41
2022-07-29T15:10:21.804Z,28.36
2022-07-29T15:12:51.259Z,28.31
2022-07-29T15:15:17.695Z,28.44
2022-07-29T15:17:44.155Z,28.18
2022-07-29T15:20:12.091Z,28.43
2022-07-29T15:22:39.138Z,28.37
2022-07-29T15:25:06.461Z,28.72
2022-07-29T15:27:32.891Z,28.04
2022-07-29T15:29:59.345Z,28.17
2022-07-29T15:32:26.069Z,28.38
2022-07-29T15:34:52.549Z,28.19
2022-07-29T15:37:19.009Z,28.29
2022-07-29T15:39:45.464Z,28.18
2022-07-29T15:42:11.987Z,28.26
2022-07-29T15:44:38.463Z,28.23
2022-07-29T15:47:06.084Z,28.34
2022-07-29T15:49:48.532Z,28.40
2022-07-29T15:52:18.170Z,28.28
2022-07-29T15:54:44.752Z,28.52
2022-07-29T15:57:12.112Z,28.52
2022-07-29T15:59:38.549Z,28.55
2022-07-29T16:02:05.484Z,28.48
2022-07-29T16:04:32.250Z,28.28
2022-07-29T16:06:59.287Z,28.30
2022-07-29T16:09:26.673Z,28.07
2022-07-29T16:11:53.979Z,28.19
2022-07-29T16:14:20.674Z,28.25
2022-07-29T16:16:47.503Z,28.19
2022-07-29T16:19:14.766Z,27.92
2022-07-29T16:21:41.209Z,27.69
2022-07-29T16:24:08.176Z,27.63
2022-07-29T16:26:35.076Z,27.66
2022-07-29T16:29:01.826Z,27.63
2022-07-29T16:31:28.327Z,27.59
2022-07-29T16:33:56.052Z,27.50
2022-07-29T16:36:23.051Z,27.39
2022-07-29T16:38:50.067Z,27.23
2022-07-29T16:41:16.621Z,27.24
2022-07-29T16:43:43.170Z,27.13
2022-07-29T16:46:11.855Z,27.28
2022-07-29T16:48:44.915Z,27.20
2022-07-29T16:51:11.832Z,27.15
2022-07-29T16:53:41.067Z,27.16
2022-07-29T16:56:07.516Z,27.16
2022-07-29T16:58:40.495Z,27.01
2022-07-29T17:01:09.958Z,26.77
2022-07-29T17:03:36.466Z,26.91
2022-07-29T17:06:02.907Z,26.75
2022-07-29T17:08:30.370Z,26.49
2022-07-29T17:10:56.789Z,26.37
2022-07-29T17:13:23.218Z,26.11
2022-07-29T17:15:49.706Z,26.29
2022-07-29T17:18:16.247Z,26.15
2022-07-29T17:20:42.693Z,26.17
2022-07-29T17:23:09.185Z,26.01
2022-07-29T17:25:35.685Z,25.98
2022-07-29T17:28:02.170Z,25.72
2022-07-29T17:30:29.555Z,25.68
2022-07-29T17:32:56.091Z,25.78
2022-07-29T17:35:41.386Z,25.75
2022-07-29T17:38:07.867Z,25.72
2022-07-29T17:40:34.317Z,25.89
2022-07-29T17:43:00.763Z,25.67
2022-07-29T17:45:49.589Z,25.65
2022-07-29T17:48:13.745Z,25.58
2022-07-29T17:50:40.160Z,25.52
2022-07-29T17:53:10.782Z,25.46
2022-07-29T17:55:45.169Z,25.50
2022-07-29T17:58:12.057Z,25.40
2022-07-29T18:00:38.794Z,25.26
2022-07-29T18:03:05.354Z,25.40
2022-07-29T18:05:31.817Z,25.39
2022-07-29T18:07:58.862Z,25.52
2022-07-29T18:10:25.514Z,25.42
2022-07-29T18:12:52.375Z,25.24
2022-07-29T18:15:18.827Z,25.53
2022-07-29T18:17:56.527Z,25.40
2022-07-29T18:20:25.806Z,25.42
2022-07-29T18:22:52.380Z,25.43
2022-07-29T18:25:18.886Z,25.26
2022-07-29T18:27:45.361Z,25.35
2022-07-29T18:30:11.944Z,25.27
2022-07-29T18:32:38.455Z,25.33
2022-07-29T18:35:06.349Z,25.56
2022-07-29T18:38:02.200Z,25.34
2022-07-29T18:40:25.633Z,25.26
2022-07-29T18:42:52.959Z,25.43
2022-07-29T18:45:19.928Z,25.47
2022-07-29T18:47:49.079Z,25.49
2022-07-29T18:50:16.307Z,25.52
2022-07-29T18:52:42.815Z,25.36
2022-07-29T18:55:09.290Z,25.34
2022-07-29T18:57:55.231Z,25.37
2022-07-29T19:00:22.712Z,25.27
2022-07-29T19:02:49.377Z,25.21
2022-07-29T19:05:15.907Z,25.29
2022-07-29T19:07:42.554Z,25.34
2022-07-29T19:10:09.564Z,25.14
2022-07-29T19:12:35.997Z,24.99
2022-07-29T19:15:03.247Z,25.06
2022-07-29T19:17:29.760Z,25.02
2022-07-29T19:19:56.211Z,24.99
2022-07-29T19:22:23.115Z,25.06
2022-07-29T19:24:50.989Z,25.05
2022-07-29T19:27:17.441Z,24.97
2022-07-29T19:29:44.080Z,24.92
2022-07-29T19:32:10.571Z,24.84
2022-07-29T19:34:37.418Z,24.95
2022-07-29T19:37:04.169Z,24.94
2022-07-29T19:39:32.006Z,24.87
2022-07-29T19:42:03.449Z,24.91
2022-07-29T19:44:30.347Z,24.73
2022-07-29T19:46:57.026Z,24.69
2022-07-29T19:49:23.921Z,24.59
2022-07-29T19:51:50.472Z,24.49
2022-07-29T19:54:20.087Z,24.34
2022-07-29T19:56:46.556Z,24.35
2022-07-29T19:59:13.012Z,24.29
2022-07-29T20:01:39.557Z,24.28
2022-07-29T20:04:06.090Z,24.18
2022-07-29T20:06:32.602Z,24.00
2022-07-29T20:08:59.218Z,23.97
2022-07-29T20:11:26.510Z,23.86
2022-07-29T20:13:52.967Z,24.03
2022-07-29T20:16:19.472Z,24.24
2022-07-29T20:18:45.960Z,24.16
2022-07-29T20:21:12.401Z,24.16
2022-07-29T20:23:38.946Z,24.16
2022-07-29T20:26:09.281Z,23.87
2022-07-29T20:28:36.173Z,24.10
2022-07-29T20:31:02.807Z,23.97
2022-07-29T20:33:29.293Z,23.81
2022-07-29T20:35:55.699Z,23.93
2022-07-29T20:38:22.284Z,23.99
2022-07-29T20:40:49.627Z,23.63
2022-07-29T20:43:16.227Z,23.78
2022-07-29T20:45:42.669Z,23.67
2022-07-29T20:48:10.433Z,23.80
2022-07-29T20:50:36.897Z,24.01
2022-07-29T20:53:03.763Z,23.76
2022-07-29T20:55:32.102Z,23.85
2022-07-29T20:57:58.889Z,23.77
2022-07-29T21:00:25.324Z,23.65
2022-07-29T21:02:51.885Z,23.78
2022-07-29T21:05:18.481Z,23.84
2022-07-29T21:07:44.958Z,23.75
2022-07-29T21:10:11.611Z,23.74
2022-07-29T21:12:38.060Z,23.62
2022-07-29T21:15:06.489Z,23.56
2022-07-29T21:17:38.940Z,23.54
2022-07-29T21:20:08.456Z,23.43
2022-07-29T21:22:34.863Z,23.61
2022-07-29T21:25:01.646Z,23.51
2022-07-29T21:27:46.789Z,23.70
2022-07-29T21:30:13.335Z,23.62
2022-07-29T21:32:39.864Z,23.49
2022-07-29T21:35:15.193Z,23.51
2022-07-29T21:37:52.962Z,23.48
2022-07-29T21:40:19.419Z,23.29
2022-07-29T21:42:45.998Z,23.50
2022-07-29T21:45:13.490Z,23.58
2022-07-29T21:47:39.976Z,23.47
2022-07-29T21:50:06.805Z,23.38
2022-07-29T21:52:33.218Z,23.38
2022-07-29T21:54:59.640Z,23.49
2022-07-29T21:57:26.524Z,23.34
2022-07-29T21:59:52.994Z,23.44
2022-07-29T22:02:19.413Z,23.33
2022-07-29T22:04:46.010Z,23.45
2022-07-29T22:07:12.509Z,23.38
2022-07-29T22:09:38.996Z,23.39
2022-07-29T22:12:05.902Z,23.43
2022-07-29T22:14:32.511Z,23.18
2022-07-29T22:16:59.622Z,23.39
2022-07-29T22:19:27.395Z,23.48
2022-07-29T22:21:54.309Z,23.27
2022-07-29T22:24:20.746Z,23.30
2022-07-29T22:26:47.181Z,23.19
2022-07-29T22:29:16.577Z,23.18
2022-07-29T22:31:43.878Z,23.11
2022-07-29T22:34:13.140Z,23.08
2022-07-29T22:36:40.968Z,22.97
2022-07-29T22:39:07.580Z,23.02
2022-07-29T22:41:34.091Z,23.02
2022-07-29T22:44:00.595Z,22.94
2022-07-29T22:46:27.070Z,22.94
2022-07-29T22:48:53.591Z,22.96
2022-07-29T22:51:20.058Z,22.88
2022-07-29T22:53:46.979Z,22.83
2022-07-29T22:56:13.638Z,22.78
2022-07-29T22:58:40.123Z,22.77
2022-07-29T23:01:06.699Z,22.52
2022-07-29T23:03:33.301Z,22.72
2022-07-29T23:05:59.820Z,22.82
2022-07-29T23:08:26.240Z,22.79
2022-07-29T23:10:52.710Z,22.84
2022-07-29T23:13:19.150Z,22.81
2022-07-29T23:15:45.597Z,22.80
2022-07-29T23:18:12.131Z,22.93
2022-07-29T23:20:38.643Z,22.98
2022-07-29T23:23:05.263Z,22.78
2022-07-29T23:25:31.754Z,22.82
2022-07-29T23:27:58.246Z,22.90
2022-07-29T23:30:24.717Z,22.96
2022-07-29T23:32:51.188Z,22.97
2022-07-29T23:35:17.674Z,22.97
2022-07-29T23:37:44.150Z,22.96
2022-07-29T23:40:14.393Z,22.78
2022-07-29T23:42:42.258Z,22.76
2022-07-29T23:45:09.675Z,22.65
2022-07-29T23:47:36.239Z,22.67
2022-07-29T23:50:02.712Z,22.83
2022-07-29T23:52:29.257Z,22.91
2022-07-29T23:54:55.722Z,22.94
2022-07-29T23:57:42.574Z,22.81
